Time;durP1;ratioP1;P1;durP2;ratioP2;P2;SDS_P1;SDS_P2;PMS_P1;PMS_P2;Temp;Humidity;BMP_temperature;BMP_pressure;BME280_temperature;BME280_humidity;BME280_pressure;Samples;Min_cycle;Max_cycle;Signal;HPM_P1;HPM_P2
2024/04/14 00:01:22;;;;;;;1.60;1.30;;;;;;;;;;5427421;26;20239;-45
2024/04/14 00:03:54;;;;;;;2.40;1.15;;;;;;;;;;5427491;26;20411;-46
2024/04/14 00:06:22;;;;;;;2.83;1.27;;;;;;;;;;5434333;26;20244;-46
2024/04/14 00:08:48;;;;;;;1.75;1.40;;;;;;;;;;5435277;26;20274;-46
2024/04/14 00:11:14;;;;;;;2.35;1.42;;;;;;;;;;5420507;26;20240;-45
2024/04/14 00:13:40;;;;;;;1.80;1.38;;;;;;;;;;5427992;26;20232;-46
2024/04/14 00:16:06;;;;;;;1.77;1.30;;;;;;;;;;5455252;26;20227;-45
2024/04/14 00:18:32;;;;;;;2.80;1.40;;;;;;;;;;5450608;26;20319;-46
2024/04/14 00:20:58;;;;;;;1.85;1.35;;;;;;;;;;5439174;26;20231;-45
2024/04/14 00:23:24;;;;;;;2.20;1.42;;;;;;;;;;5444089;26;20448;-46
2024/04/14 00:25:50;;;;;;;2.78;1.40;;;;;;;;;;5435104;26;20231;-45
2024/04/14 00:28:16;;;;;;;1.30;1.20;;;;;;;;;;5438541;26;20285;-45
2024/04/14 00:30:42;;;;;;;2.28;1.27;;;;;;;;;;5446379;26;20513;-45
2024/04/14 00:33:08;;;;;;;2.22;1.38;;;;;;;;;;5449571;26;20235;-46
2024/04/14 00:35:33;;;;;;;1.70;1.38;;;;;;;;;;5436000;26;20262;-46
2024/04/14 00:37:59;;;;;;;1.30;1.20;;;;;;;;;;5436556;26;20240;-45
2024/04/14 00:40:25;;;;;;;2.33;1.25;;;;;;;;;;5453848;26;20275;-45
2024/04/14 00:42:57;;;;;;;1.63;1.30;;;;;;;;;;5439439;26;20236;-45
2024/04/14 00:45:24;;;;;;;1.20;1.10;;;;;;;;;;5443492;26;20320;-45
2024/04/14 00:47:50;;;;;;;1.80;1.48;;;;;;;;;;5435633;26;20512;-45
2024/04/14 00:50:16;;;;;;;1.73;1.25;;;;;;;;;;5426929;26;20236;-45
2024/04/14 00:52:42;;;;;;;2.10;1.40;;;;;;;;;;5427817;26;20303;-46
2024/04/14 00:55:08;;;;;;;2.00;1.50;;;;;;;;;;5447309;26;20227;-46
2024/04/14 00:57:34;;;;;;;2.80;1.20;;;;;;;;;;5435291;26;20232;-46
2024/04/14 01:00:01;;;;;;;2.00;1.52;;;;;;;;;;5429894;26;20663;-45
2024/04/14 01:02:27;;;;;;;2.50;1.45;;;;;;;;;;5443390;26;20309;-45
2024/04/14 01:04:53;;;;;;;2.50;1.55;;;;;;;;;;5432178;26;20225;-45
2024/04/14 01:07:20;;;;;;;2.70;1.42;;;;;;;;;;5454721;26;20648;-45
2024/04/14 01:09:46;;;;;;;3.60;1.50;;;;;;;;;;5447156;26;20270;-45
2024/04/14 01:12:12;;;;;;;3.17;1.50;;;;;;;;;;5426924;26;20252;-45
2024/04/14 01:14:38;;;;;;;2.13;1.50;;;;;;;;;;5432823;26;20374;-45
2024/04/14 01:17:05;;;;;;;2.20;1.60;;;;;;;;;;5441692;26;20236;-46
2024/04/14 01:19:31;;;;;;;2.35;1.73;;;;;;;;;;5444011;26;20495;-45
2024/04/14 01:21:57;;;;;;;1.83;1.40;;;;;;;;;;5441379;26;20239;-45
2024/04/14 01:24:23;;;;;;;1.50;1.40;;;;;;;;;;5450104;26;20243;-46
2024/04/14 01:26:49;;;;;;;4.05;1.50;;;;;;;;;;5451754;26;20243;-45
2024/04/14 01:29:15;;;;;;;1.58;1.48;;;;;;;;;;5448897;26;20237;-45
2024/04/14 01:31:41;;;;;;;1.92;1.30;;;;;;;;;;5433965;26;20311;-45
2024/04/14 01:34:07;;;;;;;2.95;1.60;;;;;;;;;;5448618;26;20312;-45
2024/04/14 01:36:33;;;;;;;1.70;1.60;;;;;;;;;;5435087;26;20647;-45
2024/04/14 01:39:00;;;;;;;1.60;1.50;;;;;;;;;;5434872;26;20320;-45
2024/04/14 01:41:26;;;;;;;1.65;1.33;;;;;;;;;;5427100;26;20223;-45
2024/04/14 01:43:52;;;;;;;2.00;1.35;;;;;;;;;;5434412;26;20541;-45
2024/04/14 01:46:17;;;;;;;2.20;1.30;;;;;;;;;;5445243;26;20243;-45
2024/04/14 01:48:43;;;;;;;1.90;1.70;;;;;;;;;;5434749;26;20320;-45
2024/04/14 01:51:09;;;;;;;1.73;1.20;;;;;;;;;;5439890;26;20223;-45
2024/04/14 01:53:35;;;;;;;2.17;1.35;;;;;;;;;;5447442;26;20374;-45
2024/04/14 01:56:01;;;;;;;2.35;1.70;;;;;;;;;;5436387;26;20889;-45
2024/04/14 01:58:27;;;;;;;2.95;1.40;;;;;;;;;;5444470;26;20266;-45
2024/04/14 02:00:53;;;;;;;2.92;1.38;;;;;;;;;;5448320;26;20266;-45
2024/04/14 02:03:19;;;;;;;2.40;1.55;;;;;;;;;;5447236;26;20228;-45
2024/04/14 02:05:45;;;;;;;2.90;1.48;;;;;;;;;;5440217;26;20659;-45
2024/04/14 02:08:11;;;;;;;1.98;1.58;;;;;;;;;;5440854;26;20497;-46
2024/04/14 02:10:43;;;;;;;1.35;1.17;;;;;;;;;;5432582;26;20803;-46
2024/04/14 02:13:09;;;;;;;1.77;1.40;;;;;;;;;;5430164;26;20232;-45
2024/04/14 02:15:35;;;;;;;5.38;1.50;;;;;;;;;;5452129;26;20281;-45
2024/04/14 02:18:01;;;;;;;1.52;1.40;;;;;;;;;;5451628;26;20594;-45
2024/04/14 02:20:27;;;;;;;1.67;1.38;;;;;;;;;;5449158;26;20239;-46
2024/04/14 02:22:52;;;;;;;2.63;1.40;;;;;;;;;;5444753;26;20235;-45
2024/04/14 02:25:18;;;;;;;2.22;1.38;;;;;;;;;;5451110;26;20274;-45
2024/04/14 02:27:44;;;;;;;2.40;1.40;;;;;;;;;;5439147;26;20354;-45
2024/04/14 02:30:10;;;;;;;2.03;1.50;;;;;;;;;;5440052;26;20232;-45
2024/04/14 02:32:38;;;;;;;1.98;1.42;;;;;;;;;;5446926;26;20273;-44
2024/04/14 02:35:06;;;;;;;2.40;1.50;;;;;;;;;;5436505;26;20221;-46
2024/04/14 02:37:32;;;;;;;1.23;1.10;;;;;;;;;;5424028;26;20584;-45
2024/04/14 02:39:58;;;;;;;2.58;1.50;;;;;;;;;;5447525;26;20231;-45
2024/04/14 02:42:24;;;;;;;2.67;1.42;;;;;;;;;;5450833;26;20223;-45
2024/04/14 02:44:49;;;;;;;1.92;1.60;;;;;;;;;;5455039;26;20223;-45
2024/04/14 02:47:15;;;;;;;1.40;1.30;;;;;;;;;;5432671;26;20272;-45
2024/04/14 02:49:41;;;;;;;2.00;1.27;;;;;;;;;;5437150;26;20239;-44
2024/04/14 02:52:07;;;;;;;3.00;1.60;;;;;;;;;;5441137;26;20292;-45
2024/04/14 02:54:33;;;;;;;3.25;1.60;;;;;;;;;;5431522;26;20428;-45
2024/04/14 02:56:59;;;;;;;2.50;1.20;;;;;;;;;;5446416;26;20231;-45
2024/04/14 02:59:25;;;;;;;4.13;1.45;;;;;;;;;;5432175;26;20328;-45
2024/04/14 03:01:51;;;;;;;1.80;1.52;;;;;;;;;;5425139;26;20240;-45
2024/04/14 03:04:17;;;;;;;1.92;1.20;;;;;;;;;;5421854;26;20239;-44
2024/04/14 03:06:43;;;;;;;2.38;1.70;;;;;;;;;;5436465;26;20231;-45
2024/04/14 03:09:09;;;;;;;1.50;1.40;;;;;;;;;;5437205;26;20635;-45
2024/04/14 03:11:35;;;;;;;2.08;1.33;;;;;;;;;;5439922;26;20249;-45
2024/04/14 03:14:01;;;;;;;1.52;1.42;;;;;;;;;;5437271;26;20294;-45
2024/04/14 03:16:27;;;;;;;1.65;1.55;;;;;;;;;;5439405;26;20233;-44
2024/04/14 03:18:53;;;;;;;3.30;1.63;;;;;;;;;;5421987;26;20317;-45
2024/04/14 03:21:19;;;;;;;1.45;1.35;;;;;;;;;;5447262;26;20244;-45
2024/04/14 03:23:45;;;;;;;2.47;1.60;;;;;;;;;;5446028;26;20454;-45
2024/04/14 03:26:11;;;;;;;1.90;1.70;;;;;;;;;;5447796;26;20232;-45
2024/04/14 03:28:37;;;;;;;1.83;1.40;;;;;;;;;;5449460;26;20232;-45
2024/04/14 03:31:03;;;;;;;1.80;1.50;;;;;;;;;;5433506;26;20671;-45
2024/04/14 03:33:29;;;;;;;3.13;1.45;;;;;;;;;;5456036;26;20334;-45
2024/04/14 03:35:59;;;;;;;2.08;1.65;;;;;;;;;;5442131;26;20235;-44
2024/04/14 03:38:25;;;;;;;2.38;1.40;;;;;;;;;;5446139;26;20566;-44
2024/04/14 03:40:54;;;;;;;1.85;1.60;;;;;;;;;;5454872;26;20693;-44
2024/04/14 03:43:20;;;;;;;2.00;1.65;;;;;;;;;;5455537;26;20462;-45
2024/04/14 03:45:46;;;;;;;2.85;1.73;;;;;;;;;;5445801;26;20232;-45
2024/04/14 03:48:12;;;;;;;3.22;1.60;;;;;;;;;;5452924;26;20267;-44
2024/04/14 03:50:38;;;;;;;4.57;1.40;;;;;;;;;;5434720;26;20244;-45
2024/04/14 03:53:04;;;;;;;5.32;1.98;;;;;;;;;;5426105;26;20233;-44
2024/04/14 03:55:31;;;;;;;5.38;1.48;;;;;;;;;;5447664;26;20563;-45
2024/04/14 03:57:57;;;;;;;3.47;1.20;;;;;;;;;;5445579;26;20629;-44
2024/04/14 04:00:23;;;;;;;2.03;1.50;;;;;;;;;;5445807;26;20270;-44
2024/04/14 04:02:49;;;;;;;1.38;1.27;;;;;;;;;;5440454;26;20279;-45
2024/04/14 04:05:15;;;;;;;1.75;1.20;;;;;;;;;;5422839;26;20232;-45
2024/04/14 04:07:41;;;;;;;2.58;1.50;;;;;;;;;;5455290;26;20266;-44
2024/04/14 04:10:07;;;;;;;2.53;1.38;;;;;;;;;;5454017;26;20309;-45
2024/04/14 04:12:34;;;;;;;3.53;1.58;;;;;;;;;;5432279;26;20330;-42
2024/04/14 04:15:00;;;;;;;2.08;1.50;;;;;;;;;;5450989;26;20286;-41
2024/04/14 04:17:26;;;;;;;2.47;1.60;;;;;;;;;;5448696;26;20228;-46
2024/04/14 04:19:52;;;;;;;3.00;1.48;;;;;;;;;;5437347;26;20756;-45
2024/04/14 04:22:18;;;;;;;3.53;1.48;;;;;;;;;;5439630;26;20283;-46
2024/04/14 04:24:43;;;;;;;3.75;1.80;;;;;;;;;;5432787;26;20236;-45
2024/04/14 04:27:09;;;;;;;1.85;1.52;;;;;;;;;;5432354;26;20280;-40
2024/04/14 04:29:36;;;;;;;2.20;1.38;;;;;;;;;;5450299;26;20251;-49
2024/04/14 04:32:02;;;;;;;3.72;1.70;;;;;;;;;;5435981;26;20446;-40
2024/04/14 04:34:27;;;;;;;2.42;1.45;;;;;;;;;;5434890;26;20233;-44
2024/04/14 04:36:53;;;;;;;3.55;1.42;;;;;;;;;;5431118;26;20237;-43
2024/04/14 04:39:19;;;;;;;2.80;1.52;;;;;;;;;;5430308;26;20317;-47
2024/04/14 04:41:45;;;;;;;2.05;1.50;;;;;;;;;;5443752;26;20263;-44
2024/04/14 04:44:11;;;;;;;2.72;1.42;;;;;;;;;;5431312;26;20316;-44
2024/04/14 04:46:37;;;;;;;2.70;1.33;;;;;;;;;;5442675;26;20227;-44
2024/04/14 04:49:03;;;;;;;4.50;1.83;;;;;;;;;;5441370;26;20274;-44
2024/04/14 04:51:30;;;;;;;3.25;1.58;;;;;;;;;;5448739;26;20437;-44
2024/04/14 04:53:56;;;;;;;2.70;1.55;;;;;;;;;;5425101;26;20278;-43
2024/04/14 04:56:22;;;;;;;4.68;1.38;;;;;;;;;;5451081;26;20438;-50
2024/04/14 04:58:47;;;;;;;1.90;1.30;;;;;;;;;;5450259;26;20235;-49
2024/04/14 05:01:13;;;;;;;2.35;1.80;;;;;;;;;;5448827;26;20436;-49
2024/04/14 05:03:39;;;;;;;5.38;1.95;;;;;;;;;;5440931;26;20455;-49
2024/04/14 05:06:06;;;;;;;4.55;1.50;;;;;;;;;;5455266;26;20324;-49
2024/04/14 05:08:32;;;;;;;3.70;1.67;;;;;;;;;;5439822;26;20243;-50
2024/04/14 05:10:59;;;;;;;4.82;1.58;;;;;;;;;;5433391;26;20235;-49
2024/04/14 05:13:25;;;;;;;2.92;1.50;;;;;;;;;;5433082;26;20223;-49
2024/04/14 05:15:51;;;;;;;1.77;1.50;;;;;;;;;;5454471;26;20287;-49
2024/04/14 05:18:17;;;;;;;2.53;1.60;;;;;;;;;;5447612;26;20235;-49
2024/04/14 05:20:44;;;;;;;5.32;1.90;;;;;;;;;;5444990;26;20642;-50
2024/04/14 05:23:10;;;;;;;3.42;1.55;;;;;;;;;;5440284;26;20275;-49
2024/04/14 05:25:36;;;;;;;2.30;1.63;;;;;;;;;;5431595;26;20231;-46
2024/04/14 05:28:02;;;;;;;5.65;1.98;;;;;;;;;;5435826;26;20236;-46
2024/04/14 05:30:28;;;;;;;7.75;1.77;;;;;;;;;;5427580;26;20231;-44
2024/04/14 05:32:57;;;;;;;3.78;1.40;;;;;;;;;;5434817;26;20221;-40
2024/04/14 05:35:23;;;;;;;2.88;1.85;;;;;;;;;;5435146;26;20261;-44
2024/04/14 05:37:49;;;;;;;3.85;1.67;;;;;;;;;;5428147;26;20228;-39
2024/04/14 05:40:15;;;;;;;6.85;2.33;;;;;;;;;;5440012;26;20320;-39
2024/04/14 05:42:41;;;;;;;5.32;1.77;;;;;;;;;;5452454;26;20247;-39
2024/04/14 05:45:10;;;;;;;6.40;1.95;;;;;;;;;;5443019;26;20724;-37
2024/04/14 05:47:36;;;;;;;3.13;1.38;;;;;;;;;;5447661;26;20223;-39
2024/04/14 05:50:02;;;;;;;3.70;1.52;;;;;;;;;;5435387;26;20231;-37
2024/04/14 05:52:28;;;;;;;5.03;1.70;;;;;;;;;;5443534;26;20231;-37
2024/04/14 05:54:54;;;;;;;2.65;1.88;;;;;;;;;;5427078;26;20229;-37
2024/04/14 05:57:20;;;;;;;3.63;1.73;;;;;;;;;;5438541;26;20221;-37
2024/04/14 05:59:46;;;;;;;3.65;1.90;;;;;;;;;;5438738;26;20235;-36
2024/04/14 06:02:12;;;;;;;7.50;1.90;;;;;;;;;;5434861;26;20275;-37
2024/04/14 06:04:38;;;;;;;3.78;1.45;;;;;;;;;;5441850;26;20595;-37
2024/04/14 06:07:04;;;;;;;3.20;1.75;;;;;;;;;;5447976;26;20453;-37
2024/04/14 06:09:30;;;;;;;2.53;1.67;;;;;;;;;;5446139;26;20251;-37
2024/04/14 06:11:56;;;;;;;4.47;2.58;;;;;;;;;;5441315;26;20239;-37
2024/04/14 06:14:23;;;;;;;7.00;2.00;;;;;;;;;;5438919;26;20286;-37
2024/04/14 06:16:49;;;;;;;2.30;1.60;;;;;;;;;;5429822;26;20216;-37
2024/04/14 06:19:17;;;;;;;2.60;1.98;;;;;;;;;;5451775;26;20235;-37
2024/04/14 06:21:42;;;;;;;3.13;1.60;;;;;;;;;;5449045;26;20305;-36
2024/04/14 06:24:08;;;;;;;1.85;1.73;;;;;;;;;;5452328;26;20311;-37
2024/04/14 06:26:34;;;;;;;2.00;1.67;;;;;;;;;;5452488;26;21026;-37
2024/04/14 06:29:00;;;;;;;2.25;1.55;;;;;;;;;;5446904;26;20263;-37
2024/04/14 06:31:26;;;;;;;3.38;1.77;;;;;;;;;;5451327;26;20282;-37
2024/04/14 06:33:52;;;;;;;4.35;1.45;;;;;;;;;;5453269;26;20270;-37
2024/04/14 06:36:18;;;;;;;3.53;1.85;;;;;;;;;;5452647;26;20239;-37
2024/04/14 06:38:44;;;;;;;2.42;2.08;;;;;;;;;;5445950;26;20591;-37
2024/04/14 06:41:13;;;;;;;3.00;2.05;;;;;;;;;;5447082;26;20239;-37
2024/04/14 06:43:39;;;;;;;2.75;1.85;;;;;;;;;;5453936;26;20279;-37
2024/04/14 06:46:05;;;;;;;2.53;1.90;;;;;;;;;;5454223;26;20224;-37
2024/04/14 06:48:31;;;;;;;4.82;2.00;;;;;;;;;;5454783;26;20227;-37
2024/04/14 06:50:57;;;;;;;3.35;1.83;;;;;;;;;;5438180;26;20473;-37
2024/04/14 06:53:23;;;;;;;2.72;1.98;;;;;;;;;;5442552;26;20274;-37
2024/04/14 06:55:53;;;;;;;3.05;1.63;;;;;;;;;;5441645;26;20554;-37
2024/04/14 06:58:19;;;;;;;2.45;1.85;;;;;;;;;;5444624;26;20646;-37
2024/04/14 07:00:45;;;;;;;3.20;1.90;;;;;;;;;;5434827;26;20349;-37
2024/04/14 07:03:12;;;;;;;2.33;1.58;;;;;;;;;;5447838;26;20231;-37
2024/04/14 07:05:37;;;;;;;4.13;1.95;;;;;;;;;;5440199;26;20267;-36
2024/04/14 07:08:04;;;;;;;3.28;1.70;;;;;;;;;;5459179;26;20219;-37
2024/04/14 07:10:30;;;;;;;2.22;1.52;;;;;;;;;;5454729;26;20322;-38
2024/04/14 07:12:56;;;;;;;2.25;1.75;;;;;;;;;;5439795;26;20244;-37
2024/04/14 07:15:22;;;;;;;3.80;2.20;;;;;;;;;;5454817;26;20223;-37
2024/04/14 07:17:48;;;;;;;3.17;2.00;;;;;;;;;;5440986;26;20271;-37
2024/04/14 07:20:13;;;;;;;2.13;1.80;;;;;;;;;;5450506;26;20259;-37
2024/04/14 07:22:39;;;;;;;1.85;1.67;;;;;;;;;;5418336;26;20232;-37
2024/04/14 07:25:05;;;;;;;4.03;1.80;;;;;;;;;;5430317;26;20233;-36
2024/04/14 07:27:31;;;;;;;4.72;1.92;;;;;;;;;;5437120;26;20248;-36
2024/04/14 07:29:57;;;;;;;2.95;1.80;;;;;;;;;;5435703;26;20225;-36
2024/04/14 07:32:23;;;;;;;3.35;1.80;;;;;;;;;;5437833;26;20281;-37
2024/04/14 07:34:49;;;;;;;2.03;1.80;;;;;;;;;;5436018;26;20291;-37
2024/04/14 07:37:15;;;;;;;3.65;1.70;;;;;;;;;;5427944;26;20228;-37
2024/04/14 07:39:41;;;;;;;3.65;1.95;;;;;;;;;;5440824;26;20235;-37
2024/04/14 07:42:08;;;;;;;2.47;1.75;;;;;;;;;;5434865;26;20508;-37
2024/04/14 07:44:34;;;;;;;5.75;1.95;;;;;;;;;;5436998;26;20292;-36
2024/04/14 07:47:00;;;;;;;2.50;1.95;;;;;;;;;;5453426;26;20232;-37
2024/04/14 07:49:25;;;;;;;5.78;1.67;;;;;;;;;;5450595;26;20274;-36
2024/04/14 07:51:51;;;;;;;2.75;1.98;;;;;;;;;;5441698;26;20243;-38
2024/04/14 07:54:17;;;;;;;3.13;1.67;;;;;;;;;;5427572;26;20717;-37
2024/04/14 07:56:43;;;;;;;1.50;1.40;;;;;;;;;;5444428;26;20232;-36
2024/04/14 07:59:09;;;;;;;2.88;1.45;;;;;;;;;;5444046;26;20317;-37
2024/04/14 08:01:35;;;;;;;4.50;1.85;;;;;;;;;;5433065;26;20255;-37
2024/04/14 08:04:01;;;;;;;2.78;1.63;;;;;;;;;;5433352;26;20447;-37
2024/04/14 08:06:27;;;;;;;2.75;1.60;;;;;;;;;;5437458;26;20335;-36
2024/04/14 08:08:53;;;;;;;5.63;2.00;;;;;;;;;;5451570;26;20220;-37
2024/04/14 08:11:19;;;;;;;3.58;1.73;;;;;;;;;;5438537;26;20241;-37
2024/04/14 08:13:45;;;;;;;3.80;1.48;;;;;;;;;;5445828;26;20632;-36
2024/04/14 08:16:11;;;;;;;5.13;1.80;;;;;;;;;;5441417;26;20231;-36
2024/04/14 08:18:37;;;;;;;2.25;1.30;;;;;;;;;;5429986;26;20228;-36
2024/04/14 08:21:03;;;;;;;1.55;1.42;;;;;;;;;;5440522;26;20322;-37
2024/04/14 08:23:29;;;;;;;1.45;1.20;;;;;;;;;;5450108;26;20645;-37
2024/04/14 08:25:55;;;;;;;3.85;1.58;;;;;;;;;;5432534;26;20235;-37
2024/04/14 08:28:21;;;;;;;1.45;1.30;;;;;;;;;;5456548;26;20231;-37
2024/04/14 08:30:47;;;;;;;2.10;1.48;;;;;;;;;;5450473;26;20227;-36
2024/04/14 08:33:13;;;;;;;1.95;1.38;;;;;;;;;;5435787;26;20504;-36
2024/04/14 08:35:39;;;;;;;2.47;1.45;;;;;;;;;;5450126;26;20747;-36
2024/04/14 08:38:04;;;;;;;2.88;1.30;;;;;;;;;;5422441;26;20236;-36
2024/04/14 08:40:30;;;;;;;1.48;1.38;;;;;;;;;;5437795;26;20223;-37
2024/04/14 08:42:56;;;;;;;1.08;1.08;;;;;;;;;;5435604;26;20796;-37
2024/04/14 08:45:22;;;;;;;1.45;1.35;;;;;;;;;;5449345;26;20227;-37
2024/04/14 08:47:53;;;;;;;2.67;1.30;;;;;;;;;;5446414;26;20231;-38
2024/04/14 08:50:20;;;;;;;2.30;1.30;;;;;;;;;;5440624;26;20603;-37
2024/04/14 08:52:46;;;;;;;2.28;1.33;;;;;;;;;;5450648;26;20309;-37
2024/04/14 08:55:13;;;;;;;2.45;1.20;;;;;;;;;;5439837;26;20247;-36
2024/04/14 08:57:40;;;;;;;3.33;1.23;;;;;;;;;;5441313;26;20231;-37
2024/04/14 09:00:09;;;;;;;1.58;1.33;;;;;;;;;;5438142;26;20600;-37
2024/04/14 09:02:35;;;;;;;1.67;1.30;;;;;;;;;;5424699;26;20275;-37
2024/04/14 09:05:02;;;;;;;2.63;1.10;;;;;;;;;;5455318;26;20282;-37
2024/04/14 09:07:27;;;;;;;1.90;1.40;;;;;;;;;;5438526;26;20248;-36
2024/04/14 09:09:53;;;;;;;2.17;1.35;;;;;;;;;;5446342;26;20223;-38
2024/04/14 09:12:19;;;;;;;1.40;1.23;;;;;;;;;;5447328;26;20239;-37
2024/04/14 09:14:48;;;;;;;1.98;1.23;;;;;;;;;;5451542;26;20235;-36
2024/04/14 09:17:14;;;;;;;1.80;1.20;;;;;;;;;;5444110;26;20275;-36
2024/04/14 09:19:42;;;;;;;3.35;1.40;;;;;;;;;;5441365;26;20446;-37
2024/04/14 09:22:08;;;;;;;2.40;1.40;;;;;;;;;;5428431;26;20607;-37
2024/04/14 09:24:34;;;;;;;2.45;1.30;;;;;;;;;;5453184;26;20324;-37
2024/04/14 09:27:04;;;;;;;1.50;1.40;;;;;;;;;;5444482;26;20284;-37
2024/04/14 09:29:29;;;;;;;1.48;1.20;;;;;;;;;;5447507;26;20227;-36
2024/04/14 09:31:55;;;;;;;1.50;1.20;;;;;;;;;;5442845;26;20283;-36
2024/04/14 09:34:22;;;;;;;1.70;1.50;;;;;;;;;;5431277;26;20576;-37
2024/04/14 09:36:51;;;;;;;1.98;1.35;;;;;;;;;;5447529;26;20731;-37
2024/04/14 09:39:20;;;;;;;2.05;1.33;;;;;;;;;;5441362;26;20258;-37
2024/04/14 09:41:49;;;;;;;2.90;1.20;;;;;;;;;;5441343;26;20505;-37
2024/04/14 09:44:15;;;;;;;1.45;1.17;;;;;;;;;;5440807;26;20301;-37
2024/04/14 09:46:43;;;;;;;1.80;1.30;;;;;;;;;;5444403;26;20610;-37
2024/04/14 09:49:10;;;;;;;2.65;1.48;;;;;;;;;;5437863;26;20296;-37
2024/04/14 09:51:36;;;;;;;1.95;1.48;;;;;;;;;;5442769;26;20533;-37
2024/04/14 09:54:03;;;;;;;2.35;1.25;;;;;;;;;;5445456;26;20227;-37
2024/04/14 09:56:30;;;;;;;1.70;1.50;;;;;;;;;;5425945;26;20591;-37
2024/04/14 09:58:56;;;;;;;2.63;1.85;;;;;;;;;;5435824;26;20233;-37
2024/04/14 10:01:30;;;;;;;1.88;1.25;;;;;;;;;;5432241;26;20234;-36
2024/04/14 10:04:00;;;;;;;1.70;1.30;;;;;;;;;;5452751;26;20240;-37
2024/04/14 10:06:27;;;;;;;4.10;1.50;;;;;;;;;;5450040;26;20231;-37
2024/04/14 10:08:53;;;;;;;1.75;1.45;;;;;;;;;;5427698;26;20227;-37
2024/04/14 10:11:19;;;;;;;2.97;1.50;;;;;;;;;;5432589;26;20694;-38
2024/04/14 10:13:49;;;;;;;2.28;1.40;;;;;;;;;;5446040;26;20296;-36
2024/04/14 10:16:17;;;;;;;2.05;1.42;;;;;;;;;;5447086;26;20456;-37
2024/04/14 10:18:44;;;;;;;1.60;1.50;;;;;;;;;;5440113;26;20305;-37
2024/04/14 10:21:12;;;;;;;1.30;1.20;;;;;;;;;;5452191;26;20235;-38
2024/04/14 10:23:43;;;;;;;2.88;1.52;;;;;;;;;;5439191;26;20237;-37
2024/04/14 10:26:14;;;;;;;2.38;1.55;;;;;;;;;;5433788;26;20470;-37
2024/04/14 10:28:48;;;;;;;1.60;1.48;;;;;;;;;;5428943;26;20259;-37
2024/04/14 10:31:24;;;;;;;2.53;1.50;;;;;;;;;;5436140;26;20317;-37
2024/04/14 10:33:59;;;;;;;1.58;1.20;;;;;;;;;;5430359;26;20665;-37
2024/04/14 10:36:26;;;;;;;3.08;1.33;;;;;;;;;;5428706;26;20231;-37
2024/04/14 10:38:53;;;;;;;1.70;1.20;;;;;;;;;;5445031;26;20254;-37
2024/04/14 10:41:19;;;;;;;2.75;1.33;;;;;;;;;;5446908;26;20239;-37
2024/04/14 10:43:45;;;;;;;1.33;1.23;;;;;;;;;;5447607;26;20286;-38
2024/04/14 10:46:11;;;;;;;1.23;1.13;;;;;;;;;;5450657;26;20512;-37
2024/04/14 10:48:42;;;;;;;1.67;1.50;;;;;;;;;;5453396;26;20262;-37
2024/04/14 10:51:07;;;;;;;1.73;1.50;;;;;;;;;;5444055;26;20227;-36
2024/04/14 10:53:34;;;;;;;3.35;1.40;;;;;;;;;;5446939;26;20274;-38
2024/04/14 10:56:00;;;;;;;2.35;1.65;;;;;;;;;;5450753;26;20318;-36
2024/04/14 10:58:35;;;;;;;5.50;1.77;;;;;;;;;;5440578;26;20276;-38
2024/04/14 11:01:02;;;;;;;3.20;1.70;;;;;;;;;;5435936;26;20270;-37
2024/04/14 11:03:28;;;;;;;3.63;1.48;;;;;;;;;;5432942;26;20294;-38
2024/04/14 11:05:54;;;;;;;2.50;1.20;;;;;;;;;;5440061;26;20231;-37
2024/04/14 11:08:20;;;;;;;1.52;1.35;;;;;;;;;;5442602;26;20326;-37
2024/04/14 11:10:47;;;;;;;3.33;1.48;;;;;;;;;;5438948;26;20223;-37
2024/04/14 11:13:16;;;;;;;6.50;2.10;;;;;;;;;;5434768;26;20529;-37
2024/04/14 11:15:42;;;;;;;2.05;1.50;;;;;;;;;;5429368;26;20506;-36
2024/04/14 11:18:08;;;;;;;2.53;1.70;;;;;;;;;;5439741;26;20236;-36
2024/04/14 11:20:34;;;;;;;2.67;1.88;;;;;;;;;;5439936;26;20224;-37
2024/04/14 11:23:05;;;;;;;7.63;1.85;;;;;;;;;;5446945;26;20349;-37
2024/04/14 11:25:31;;;;;;;6.10;1.63;;;;;;;;;;5432566;26;20228;-37
2024/04/14 11:27:57;;;;;;;3.10;1.63;;;;;;;;;;5431990;26;20321;-38
2024/04/14 11:30:29;;;;;;;3.72;1.70;;;;;;;;;;5451183;26;20227;-37
2024/04/14 11:32:55;;;;;;;1.70;1.60;;;;;;;;;;5431777;26;20568;-37
2024/04/14 11:35:21;;;;;;;3.20;1.70;;;;;;;;;;5457881;26;20223;-37
2024/04/14 11:37:50;;;;;;;1.83;1.50;;;;;;;;;;5441414;26;20274;-36
2024/04/14 11:40:17;;;;;;;2.25;1.58;;;;;;;;;;5452877;26;20306;-37
2024/04/14 11:42:44;;;;;;;1.88;1.65;;;;;;;;;;5434819;26;20250;-36
2024/04/14 11:45:10;;;;;;;2.67;1.48;;;;;;;;;;5438718;26;20236;-36
2024/04/14 11:47:36;;;;;;;1.95;1.60;;;;;;;;;;5449674;26;20460;-36
2024/04/14 11:50:02;;;;;;;2.28;1.50;;;;;;;;;;5442296;26;20277;-36
2024/04/14 11:52:28;;;;;;;2.13;1.70;;;;;;;;;;5440633;26;20283;-37
2024/04/14 11:54:54;;;;;;;2.92;1.73;;;;;;;;;;5447259;26;20518;-36
2024/04/14 11:57:20;;;;;;;3.38;1.38;;;;;;;;;;5437012;26;20232;-37
2024/04/14 11:59:55;;;;;;;2.58;1.80;;;;;;;;;;5445582;26;20654;-36
2024/04/14 12:02:21;;;;;;;2.75;1.80;;;;;;;;;;5454917;26;20250;-36
2024/04/14 12:04:48;;;;;;;2.65;1.65;;;;;;;;;;5457227;26;20362;-36
2024/04/14 12:07:14;;;;;;;2.88;1.60;;;;;;;;;;5434384;26;20232;-36
2024/04/14 12:09:40;;;;;;;2.42;1.40;;;;;;;;;;5441887;26;20269;-37
2024/04/14 12:12:06;;;;;;;4.13;1.77;;;;;;;;;;5455791;26;20290;-37
2024/04/14 12:14:35;;;;;;;2.85;1.60;;;;;;;;;;5442844;26;20270;-37
2024/04/14 12:17:01;;;;;;;4.95;1.83;;;;;;;;;;5447991;26;20311;-37
2024/04/14 12:19:27;;;;;;;3.85;1.70;;;;;;;;;;5452008;26;20454;-37
2024/04/14 12:21:53;;;;;;;2.90;1.45;;;;;;;;;;5452919;26;20670;-37
2024/04/14 12:24:19;;;;;;;3.90;1.50;;;;;;;;;;5423408;26;20232;-37
2024/04/14 12:26:45;;;;;;;1.63;1.30;;;;;;;;;;5436828;26;20276;-36
2024/04/14 12:29:11;;;;;;;1.38;1.27;;;;;;;;;;5443173;26;20231;-37
2024/04/14 12:31:37;;;;;;;2.08;1.52;;;;;;;;;;5442638;26;20283;-37
2024/04/14 12:34:03;;;;;;;1.73;1.58;;;;;;;;;;5428550;26;20595;-36
2024/04/14 12:36:29;;;;;;;2.55;1.40;;;;;;;;;;5451157;26;20653;-37
2024/04/14 12:38:55;;;;;;;3.22;1.60;;;;;;;;;;5436559;26;20244;-37
2024/04/14 12:41:21;;;;;;;4.38;1.67;;;;;;;;;;5434320;26;20257;-36
2024/04/14 12:43:47;;;;;;;2.00;1.30;;;;;;;;;;5439588;26;20237;-37
2024/04/14 12:46:13;;;;;;;4.47;1.85;;;;;;;;;;5447292;26;20328;-37
2024/04/14 12:48:44;;;;;;;1.70;1.58;;;;;;;;;;5438943;26;20243;-37
2024/04/14 12:51:10;;;;;;;1.30;1.20;;;;;;;;;;5456365;26;20223;-37
2024/04/14 12:53:36;;;;;;;4.03;1.90;;;;;;;;;;5451954;26;20470;-37
2024/04/14 12:56:02;;;;;;;2.80;1.50;;;;;;;;;;5444106;26;20637;-36
2024/04/14 12:58:28;;;;;;;2.28;1.40;;;;;;;;;;5450793;26;20274;-37
2024/04/14 13:00:58;;;;;;;1.60;1.50;;;;;;;;;;5454889;26;20227;-37
2024/04/14 13:03:24;;;;;;;5.28;1.33;;;;;;;;;;5442750;26;20271;-38
2024/04/14 13:05:52;;;;;;;1.33;1.23;;;;;;;;;;5440545;26;20520;-37
2024/04/14 13:08:18;;;;;;;2.15;1.23;;;;;;;;;;5436951;26;20224;-37
2024/04/14 13:10:44;;;;;;;2.15;1.75;;;;;;;;;;5436267;26;20236;-37
2024/04/14 13:13:10;;;;;;;2.28;1.70;;;;;;;;;;5443000;26;20262;-36
2024/04/14 13:15:36;;;;;;;4.60;1.75;;;;;;;;;;5445949;26;20232;-36
2024/04/14 13:18:02;;;;;;;3.00;1.65;;;;;;;;;;5446707;26;20236;-37
2024/04/14 13:20:28;;;;;;;3.20;1.60;;;;;;;;;;5445804;26;20239;-37
2024/04/14 13:22:54;;;;;;;4.03;1.58;;;;;;;;;;5439479;26;20312;-37
2024/04/14 13:25:20;;;;;;;3.08;1.35;;;;;;;;;;5435228;26;20727;-38
2024/04/14 13:27:46;;;;;;;1.50;1.35;;;;;;;;;;5426955;26;20451;-37
2024/04/14 13:30:12;;;;;;;3.63;1.35;;;;;;;;;;5429658;26;20510;-36
2024/04/14 13:32:38;;;;;;;2.85;1.33;;;;;;;;;;5435926;26;20227;-37
2024/04/14 13:35:04;;;;;;;2.78;1.27;;;;;;;;;;5428506;26;20232;-37
2024/04/14 13:37:30;;;;;;;3.22;1.63;;;;;;;;;;5457053;26;20308;-38
2024/04/14 13:39:56;;;;;;;7.13;1.88;;;;;;;;;;5440096;26;20223;-36
2024/04/14 13:42:22;;;;;;;2.63;1.80;;;;;;;;;;5439311;26;20227;-37
2024/04/14 13:44:48;;;;;;;2.88;1.33;;;;;;;;;;5440015;26;20549;-37
2024/04/14 13:47:14;;;;;;;3.85;1.70;;;;;;;;;;5434791;26;20277;-38
2024/04/14 13:49:40;;;;;;;4.57;1.60;;;;;;;;;;5430676;26;20431;-37
2024/04/14 13:52:06;;;;;;;5.85;1.60;;;;;;;;;;5454445;26;20286;-37
2024/04/14 13:54:35;;;;;;;1.77;1.50;;;;;;;;;;5446430;26;20231;-38
2024/04/14 13:57:01;;;;;;;2.47;1.30;;;;;;;;;;5444871;26;20733;-37
2024/04/14 13:59:26;;;;;;;2.08;1.42;;;;;;;;;;5431088;26;20236;-37
2024/04/14 14:01:52;;;;;;;2.45;1.40;;;;;;;;;;5440397;26;20270;-36
2024/04/14 14:04:18;;;;;;;1.63;1.40;;;;;;;;;;5439050;26;20228;-37
2024/04/14 14:06:44;;;;;;;6.00;1.50;;;;;;;;;;5436055;26;20263;-37
2024/04/14 14:09:14;;;;;;;2.03;1.30;;;;;;;;;;5453078;26;20250;-38
2024/04/14 14:11:46;;;;;;;3.50;1.63;;;;;;;;;;5431604;26;20383;-38
2024/04/14 14:14:12;;;;;;;2.72;1.42;;;;;;;;;;5449705;26;20594;-38
2024/04/14 14:16:38;;;;;;;1.88;1.33;;;;;;;;;;5453736;26;20291;-38
2024/04/14 14:19:07;;;;;;;5.32;1.65;;;;;;;;;;5450887;26;20432;-38
2024/04/14 14:21:36;;;;;;;2.03;1.20;;;;;;;;;;5426988;26;20300;-37
2024/04/14 14:24:02;;;;;;;3.35;1.55;;;;;;;;;;5444669;26;20532;-38
2024/04/14 14:26:34;;;;;;;2.90;1.40;;;;;;;;;;5445903;26;20467;-38
2024/04/14 14:29:06;;;;;;;4.15;1.50;;;;;;;;;;5446259;26;20236;-38
2024/04/14 14:31:32;;;;;;;3.90;1.58;;;;;;;;;;5456571;26;20223;-38
2024/04/14 14:36:42;;;;;;;2.08;1.23;;;;;;;;;;5431331;26;20282;-37
2024/04/14 14:39:08;;;;;;;2.50;1.30;;;;;;;;;;5448023;26;20243;-38
2024/04/14 14:41:35;;;;;;;2.47;1.25;;;;;;;;;;5450354;26;20231;-37